• Join FlightAware (Why Join?)
  • Login
  • US Flag 
12:51PM EDT


 

Airport Tracker/Info


-or-


 

Live Flight TrackerFlight Track Log ✈ EGF3683 ✈ 23-May-2013 ✈ KORD - KELP

Flight Track Log - Related Links

Times and Time Zones

All times are in EDT time to prevent confusion due to time zone crossing. See the EGF3683 flight status page for this flight to view local times or setup timezone preferences in your user account.

Time Position Orientation Groundspeed Altitude Reporting Facility
EDT Latitude Longitude Course Direction KTS MPH feet Rate Location/Type
11:37PM 42.0000 -87.9500 253° West 155 178 1,900  Level Chicago TRACON
11:38PM 42.0333 -88.0000 312° West 190 219 3,800 1,920 Climbing Chicago TRACON
11:39PM 41.9045 -88.1722 242° Southwest  Level FlightAware Approximate
11:39PM 42.0667 -88.0667 304° West 250 288 5,800  Level Chicago TRACON
11:40PM 41.8842 -88.3124 255° West  Level FlightAware Approximate
11:40PM 42.0742 -88.1333 279° West 263 303 7,300  Level Chicago Center
11:41PM 41.8412 -88.4439 255° West  Level FlightAware Approximate
11:41PM 42.0228 -88.2200 231° Southwest 298 343 9,600  Level Chicago Center
11:42PM 41.8115 -88.5826 254° West  Level FlightAware Approximate
11:42PM 41.9694 -88.3100 231° Southwest 307 353 12,000  Level Chicago Center
11:43PM 41.7805 -88.7225 253° West  Level FlightAware Approximate
11:43PM 41.9136 -88.4106 233° Southwest 330 380 13,000  Level Chicago Center
11:44PM 41.8569 -88.5322 238° Southwest 378 435 14,100 1,380 Climbing Chicago Center
11:45PM 41.8228 -88.6667 251° West 384 442 15,900 1,680 Climbing Chicago Center
11:46PM 41.7894 -88.8044 252° West 390 449 17,500 1,140 Climbing Chicago Center
11:47PM 41.7544 -88.9461 252° West 404 465 18,200 840 Climbing Chicago Center
11:48PM 41.7175 -89.0947 252° West 421 484 19,300 1,200 Climbing Chicago Center
11:49PM 41.6644 -89.2719 248° West 430 495 20,700 1,200 Climbing Chicago Center
11:50PM 41.5978 -89.4167 238° Southwest 451 519 21,800 1,020 Climbing Chicago Center
11:51PM 41.5403 -89.5486 240° Southwest 457 526 22,800 1,020 Climbing Chicago Center
11:52PM 41.4747 -89.6953 239° Southwest 458 527 23,900 1,080 Climbing Chicago Center
11:53PM 41.4108 -89.8406 240° Southwest 457 526 25,100 1,140 Climbing Chicago Center
11:54PM 41.3475 -89.9814 239° Southwest 449 517 26,300 1,140 Climbing Chicago Center
11:54PM 41.3475 -89.9814 239° Southwest 449 517 26,300 1,440 Level Chicago Center
11:55PM 41.2728 -90.1500 240° Southwest 445 512 27,800 1,440 Climbing Chicago Center
11:55PM 41.2728 -90.1500 240° Southwest 445 512 27,800 1,440 Level Chicago Center
11:56PM 41.2106 -90.2869 239° Southwest 438 504 29,300 1,440 Climbing Chicago Center
11:56PM 41.2106 -90.2869 239° Southwest 438 504 29,300 1,080 Level Chicago Center
11:57PM 41.1503 -90.4200 239° Southwest 429 494 30,400 1,080 Climbing Chicago Center
11:57PM 41.1503 -90.4200 239° Southwest 429 494 30,400 960 Level Chicago Center
11:58PM 41.0906 -90.5522 239° Southwest 423 487 31,400 960 Climbing Chicago Center
11:58PM 41.0906 -90.5522 239° Southwest 423 487 31,400 960 Level Chicago Center
11:59PM 41.0303 -90.6828 239° Southwest 420 483 32,400 960 Climbing Chicago Center
12:00AM 40.9706 -90.8119 239° Southwest 415 478 33,400 780 Climbing Chicago Center
12:01AM 40.9122 -90.9411 239° Southwest 412 474 34,100 600 Climbing Chicago Center
12:02AM 40.8522 -91.0711 239° Southwest 414 476 34,700 540 Climbing Chicago Center
12:03AM 40.7917 -91.2022 239° Southwest 418 481 35,300 600 Climbing Chicago Center
12:04AM 40.7192 -91.3556 238° Southwest 418 481 36,000 300 Climbing Chicago Center
12:05AM 40.6575 -91.4869 238° Southwest 423 487 36,000  Level Chicago Center
12:06AM 40.5928 -91.6233 238° Southwest 439 505 36,000  Level Chicago Center
12:07AM 40.5283 -91.7614 238° Southwest 444 511 36,000  Level Chicago Center
12:08AM 40.4625 -91.8997 238° Southwest 448 516 36,000  Level Chicago Center
12:09AM 40.3967 -92.0372 238° Southwest 446 513 36,000  Level Chicago Center
12:11AM 40.3178 -92.2003 238° Southwest 444 511 36,000  Level Kansas City Center
12:12AM 40.2508 -92.3386 238° Southwest 446 513 36,000  Level Kansas City Center
12:13AM 40.1764 -92.4847 236° Southwest 449 517 36,000  Level Kansas City Center
12:14AM 40.1144 -92.6181 239° Southwest 449 517 36,000  Level Kansas City Center
12:15AM 40.0483 -92.7542 238° Southwest 445 512 36,000  Level Kansas City Center
12:16AM 39.9806 -92.8911 237° Southwest 449 517 36,000  Level Kansas City Center
12:17AM 39.9139 -93.0267 237° Southwest 448 516 36,000  Level Kansas City Center
12:18AM 39.8458 -93.1631 237° Southwest 450 518 36,000  Level Kansas City Center
12:19AM 39.7789 -93.2978 237° Southwest 449 517 36,000  Level Kansas City Center
12:20AM 39.7114 -93.4331 237° Southwest 449 517 36,000  Level Kansas City Center
12:21AM 39.6444 -93.5672 237° Southwest 448 516 36,000  Level Kansas City Center
12:22AM 39.5622 -93.7281 236° Southwest 448 516 36,000  Level Kansas City Center
12:23AM 39.5000 -93.8556 238° Southwest 445 512 36,000  Level Kansas City Center
12:24AM 39.4347 -93.9847 237° Southwest 448 516 36,000  Level Kansas City Center
12:25AM 39.3578 -94.1347 236° Southwest 447 514 36,000  Level Kansas City Center
12:26AM 39.2922 -94.2631 237° Southwest 447 514 36,000  Level Kansas City Center
12:27AM 39.2153 -94.4131 237° Southwest 448 516 36,000  Level Kansas City Center
12:28AM 39.1464 -94.5428 236° Southwest 449 517 36,000  Level Kansas City Center
12:29AM 39.0808 -94.6700 236° Southwest 450 518 36,000  Level Kansas City Center
12:30AM 39.0036 -94.8194 236° Southwest 446 513 36,000  Level Kansas City Center
12:31AM 38.9367 -94.9478 236° Southwest 447 514 36,000  Level Kansas City Center
12:32AM 38.8697 -95.0756 236° Southwest 448 516 36,000  Level Kansas City Center
12:33AM 38.8022 -95.2028 236° Southwest 447 514 36,000  Level Kansas City Center
12:34AM 38.7250 -95.3525 237° Southwest 448 516 36,000  Level Kansas City Center
12:35AM 38.6583 -95.4767 236° Southwest 445 512 36,000  Level Kansas City Center
12:36AM 38.5919 -95.6008 236° Southwest 442 509 36,000  Level Kansas City Center
12:37AM 38.5142 -95.7453 235° Southwest 441 507 36,000  Level Kansas City Center
12:38AM 38.4486 -95.8675 236° Southwest 437 503 36,000  Level Kansas City Center
12:39AM 38.3825 -95.9878 235° Southwest 434 499 36,000  Level Kansas City Center
12:40AM 38.3058 -96.1289 235° Southwest 433 498 36,000  Level Kansas City Center
12:41AM 38.2414 -96.2489 236° Southwest 430 495 36,000  Level Kansas City Center
12:42AM 38.1750 -96.3689 235° Southwest 431 496 36,000  Level Kansas City Center
12:43AM 38.1061 -96.4953 235° Southwest 434 499 36,000  Level Kansas City Center
12:44AM 38.0389 -96.6181 235° Southwest 426 490 36,000 240 Level Kansas City Center
12:45AM 37.9717 -96.7394 235° Southwest 420 483 36,500 780 Climbing Kansas City Center
12:46AM 37.9064 -96.8550 234° Southwest 407 468 37,600 720 Climbing Kansas City Center
12:47AM 37.8442 -96.9681 235° Southwest 395 455 38,000 180 Climbing Kansas City Center
12:48AM 37.7669 -97.1058 235° Southwest 398 458 38,000  Level Kansas City Center
12:49AM 37.7028 -97.2206 235° Southwest 400 460 38,000  Level Kansas City Center
12:50AM 37.6378 -97.3353 234° Southwest 399 459 38,000  Level Kansas City Center
12:51AM 37.5725 -97.4503 234° Southwest 400 460 38,000  Level Kansas City Center
12:52AM 37.5083 -97.5628 234° Southwest 395 455 38,000  Level Kansas City Center
12:53AM 37.4442 -97.6761 235° Southwest 395 455 38,000  Level Kansas City Center
12:54AM 37.3803 -97.7875 234° Southwest 392 451 38,000  Level Kansas City Center
12:55AM 37.3169 -97.8981 234° Southwest 390 449 38,000  Level Kansas City Center
12:56AM 37.2528 -98.0086 234° Southwest 390 449 38,000  Level Kansas City Center
12:57AM 37.1900 -98.1175 234° Southwest 387 445 38,000  Level Kansas City Center
12:58AM 37.1264 -98.2269 234° Southwest 388 447 38,000  Level Kansas City Center
12:59AM 37.0639 -98.3372 235° Southwest 388 447 38,000  Level Kansas City Center
01:00AM 36.9978 -98.4500 234° Southwest 383 441 38,000  Level Kansas City Center
01:01AM 36.9353 -98.5589 234° Southwest 382 440 38,000  Level Kansas City Center
01:02AM 36.8728 -98.6667 234° Southwest 383 441 38,000  Level Kansas City Center
01:03AM 36.8111 -98.7742 234° Southwest 381 438 38,000  Level Kansas City Center
01:04AM 36.7475 -98.8794 233° Southwest 380 437 38,000  Level Kansas City Center
01:05AM 36.6856 -98.9844 234° Southwest 377 434 38,000  Level Kansas City Center
01:06AM 36.6242 -99.0886 234° Southwest 375 432 38,000  Level Kansas City Center
01:07AM 36.5614 -99.1903 232° Southwest 372 428 38,000  Level Kansas City Center
01:08AM 36.4992 -99.2972 234° Southwest 378 435 38,000  Level Kansas City Center
01:09AM 36.4358 -99.4019 233° Southwest 381 438 38,000  Level Kansas City Center
01:10AM 36.3736 -99.5061 233° Southwest 378 435 38,000  Level Kansas City Center
01:11AM 36.3100 -99.6103 233° Southwest 380 437 38,000  Level Kansas City Center
01:12AM 36.2472 -99.7133 233° Southwest 378 435 38,000  Level Kansas City Center
01:13AM 36.1839 -99.8178 233° Southwest 380 437 38,000  Level Kansas City Center
01:14AM 36.1208 -99.9217 233° Southwest 378 435 38,000  Level Kansas City Center
01:15AM 36.0464 -100.0444 233° Southwest 374 430 38,000  Level Kansas City Center
01:17AM 35.9825 -100.1475 233° Southwest 377 434 38,000  Level Kansas City Center
01:18AM 35.9192 -100.2511 233° Southwest 378 435 38,000  Level Kansas City Center
01:18AM 35.8686 -100.3333 233° Southwest 377 434 38,000  Level Albuquerque Center
01:19AM 35.8047 -100.4367 233° Southwest 379 436 38,000  Level Albuquerque Center
01:20AM 35.7422 -100.5378 233° Southwest 373 429 38,000  Level Albuquerque Center
01:21AM 35.6811 -100.6394 234° Southwest 378 435 38,000  Level Albuquerque Center
01:22AM 35.6053 -100.7628 233° Southwest 378 435 38,000  Level Albuquerque Center
01:23AM 35.5400 -100.8650 232° Southwest 380 437 38,000  Level Albuquerque Center
01:24AM 35.4753 -100.9689 233° Southwest 381 438 38,000  Level Albuquerque Center
01:26AM 35.4100 -101.0719 232° Southwest 383 441 38,000  Level Albuquerque Center
01:27AM 35.3444 -101.1750 232° Southwest 382 440 38,000  Level Albuquerque Center
01:28AM 35.2775 -101.2786 232° Southwest 385 443 38,000  Level Albuquerque Center
01:29AM 35.2106 -101.3881 233° Southwest 385 443 38,000  Level Albuquerque Center
01:30AM 35.1439 -101.4925 232° Southwest 386 444 38,000  Level Albuquerque Center
01:31AM 35.0772 -101.5956 232° Southwest 388 447 38,000  Level Albuquerque Center
01:32AM 35.0150 -101.6892 231° Southwest 390 449 38,000  Level Albuquerque Center
01:33AM 34.9408 -101.8039 232° Southwest 392 451 38,000  Level Albuquerque Center
01:34AM 34.8739 -101.9075 232° Southwest 387 445 38,000  Level Albuquerque Center
01:35AM 34.8075 -102.0114 232° Southwest 389 448 38,000  Level Albuquerque Center
01:36AM 34.7397 -102.1156 232° Southwest 391 450 38,000  Level Albuquerque Center
01:37AM 34.6725 -102.2192 232° Southwest 391 450 38,000  Level Albuquerque Center
01:38AM 34.6047 -102.3239 232° Southwest 393 452 38,000  Level Albuquerque Center
01:39AM 34.5364 -102.4289 232° Southwest 394 453 38,000  Level Albuquerque Center
01:40AM 34.4678 -102.5333 231° Southwest 397 457 38,000  Level Albuquerque Center
01:41AM 34.3997 -102.6381 232° Southwest 397 457 38,000  Level Albuquerque Center
01:42AM 34.3306 -102.7411 231° Southwest 397 457 38,000  Level Albuquerque Center
01:43AM 34.2611 -102.8461 231° Southwest 398 458 38,000  Level Albuquerque Center
01:44AM 34.1903 -102.9536 231° Southwest 396 456 38,000  Level Albuquerque Center
01:45AM 34.1219 -103.0569 231° Southwest 396 456 38,000  Level Albuquerque Center
01:46AM 34.0522 -103.1597 231° Southwest 396 456 38,000 -60 Level Albuquerque Center
01:47AM 33.9833 -103.2650 232° Southwest 398 458 37,900  Descending Albuquerque Center
01:48AM 33.9128 -103.3697 231° Southwest 402 463 38,000  Climbing Albuquerque Center
01:49AM 33.8419 -103.4764 231° Southwest 406 467 38,000  Level Albuquerque Center
01:50AM 33.7700 -103.5817 231° Southwest 407 468 38,000  Level Albuquerque Center
01:51AM 33.6878 -103.7058 232° Southwest 408 470 38,000  Level Albuquerque Center
01:52AM 33.6164 -103.8111 231° Southwest 408 470 38,000  Level Albuquerque Center
01:53AM 33.5456 -103.9156 231° Southwest 405 466 38,000  Level Albuquerque Center
01:54AM 33.4728 -104.0214 231° Southwest 409 471 38,000 -600 Level Albuquerque Center
01:55AM 33.3989 -104.1275 230° Southwest 414 476 36,900 -1,140 Descending Albuquerque Center
01:56AM 33.3161 -104.2231 224° Southwest 414 476 35,800 -1,200 Descending Albuquerque Center
01:57AM 33.2328 -104.3186 224° Southwest 413 475 34,500 -1,260 Descending Albuquerque Center
01:58AM 33.1497 -104.4125 223° Southwest 411 473 33,300 -1,200 Descending Albuquerque Center
01:59AM 33.0667 -104.5081 224° Southwest 413 475 32,100 -1,200 Descending Albuquerque Center
02:00AM 32.9844 -104.6022 224° Southwest 409 471 31,000 -1,260 Descending Albuquerque Center
02:01AM 32.8981 -104.7008 224° Southwest 428 493 29,600 -1,500 Descending Albuquerque Center
02:02AM 32.8106 -104.7986 223° Southwest 430 495 28,000 -1,620 Descending Albuquerque Center
02:03AM 32.7275 -104.8953 224° Southwest 418 481 26,400 -1,740 Descending Albuquerque Center
02:04AM 32.6394 -104.9967 224° Southwest 426 490 24,600 -1,740 Descending Albuquerque Center
02:05AM 32.5508 -105.0978 224° Southwest 438 504 22,900 -1,680 Descending Albuquerque Center
02:06AM 32.4642 -105.1972 224° Southwest 439 505 21,300 -1,620 Descending Albuquerque Center
02:07AM 32.3822 -105.2847 222° Southwest 419 482 19,700 -1,680 Descending Albuquerque Center
02:08AM 32.3017 -105.3725 223° Southwest 406 467 18,200 -1,500 Descending Albuquerque Center
02:10AM 32.1567 -105.4989 226° Southwest  Level FlightAware Approximate
02:11AM 32.0667 -105.6347 226° Southwest 397 457 14,100  Level Albuquerque Center
02:12AM 31.9861 -105.7181 221° Southwest 387 445 12,800 -1,320 Descending Albuquerque Center
02:13AM 31.9125 -105.8047 225° Southwest 382 440 11,500 -1,200 Descending Albuquerque Center
02:14AM 31.9000 -105.9106 262° West 311 358 10,400 -900 Descending Albuquerque Center
02:15AM 31.8919 -106.0053 264° West 273 314 9,700 -840 Descending Albuquerque Center
02:16AM 31.8808 -106.0956 262° West 281 323 8,800 -900 Descending Albuquerque Center